sensor_id;sensor_type;location;lat;lon;timestamp;pressure;altitude;pressure_sealevel;temperature;humidity
61506;BME280;47366;51.916;4.574;2023-05-07T04:25:06;101673.22;;;14.64;87.71
61506;BME280;47366;51.916;4.574;2023-05-07T04:27:34;101677.78;;;14.63;87.36
61506;BME280;47366;51.916;4.574;2023-05-07T04:30:00;101670.66;;;14.61;87.72
61506;BME280;47366;51.916;4.574;2023-05-07T04:32:25;101674.38;;;14.60;87.47
61506;BME280;47366;51.916;4.574;2023-05-07T04:34:51;101669.00;;;14.58;87.97
61506;BME280;47366;51.916;4.574;2023-05-07T04:37:16;101669.00;;;14.58;87.66
61506;BME280;47366;51.916;4.574;2023-05-07T04:39:42;101672.63;;;14.59;87.64
61506;BME280;47366;51.916;4.574;2023-05-07T04:42:07;101665.31;;;14.59;87.50
61506;BME280;47366;51.916;4.574;2023-05-07T04:44:34;101670.78;;;14.59;87.88
61506;BME280;47366;51.916;4.574;2023-05-07T04:47:00;101677.09;;;14.60;87.42
61506;BME280;47366;51.916;4.574;2023-05-07T04:49:25;101680.50;;;14.63;87.81
61506;BME280;47366;51.916;4.574;2023-05-07T04:51:51;101679.44;;;14.66;87.35
61506;BME280;47366;51.916;4.574;2023-05-07T04:54:16;101683.13;;;14.65;88.23
61506;BME280;47366;51.916;4.574;2023-05-07T04:56:41;101681.38;;;14.64;87.92
61506;BME280;47366;51.916;4.574;2023-05-07T04:59:07;101677.59;;;14.67;87.48
61506;BME280;47366;51.916;4.574;2023-05-07T05:01:32;101682.91;;;14.68;87.31
61506;BME280;47366;51.916;4.574;2023-05-07T05:03:57;101682.03;;;14.68;87.76
61506;BME280;47366;51.916;4.574;2023-05-07T05:06:23;101695.38;;;14.72;87.49
61506;BME280;47366;51.916;4.574;2023-05-07T05:08:48;101691.78;;;14.72;87.10
61506;BME280;47366;51.916;4.574;2023-05-07T05:11:13;101689.06;;;14.72;87.19
61506;BME280;47366;51.916;4.574;2023-05-07T05:13:40;101686.25;;;14.73;87.41
61506;BME280;47366;51.916;4.574;2023-05-07T05:16:05;101695.28;;;14.74;87.28
61506;BME280;47366;51.916;4.574;2023-05-07T05:18:31;101698.97;;;14.73;87.35
61506;BME280;47366;51.916;4.574;2023-05-07T05:20:56;101697.91;;;14.75;87.30
61506;BME280;47366;51.916;4.574;2023-05-07T05:23:21;101707.75;;;14.78;87.15
61506;BME280;47366;51.916;4.574;2023-05-07T05:25:47;101700.63;;;14.75;87.35
61506;BME280;47366;51.916;4.574;2023-05-07T05:28:12;101702.41;;;14.76;87.51
61506;BME280;47366;51.916;4.574;2023-05-07T05:30:38;101713.97;;;14.80;87.72
61506;BME280;47366;51.916;4.574;2023-05-07T05:33:03;101717.38;;;14.83;87.60
61506;BME280;47366;51.916;4.574;2023-05-07T05:35:29;101714.09;;;14.78;87.13
61506;BME280;47366;51.916;4.574;2023-05-07T05:37:54;101716.03;;;14.76;88.16
61506;BME280;47366;51.916;4.574;2023-05-07T05:40:20;101719.53;;;14.78;88.53
61506;BME280;47366;51.916;4.574;2023-05-07T05:42:45;101720.50;;;14.77;88.82
61506;BME280;47366;51.916;4.574;2023-05-07T05:45:10;101723.72;;;14.84;88.36
61506;BME280;47366;51.916;4.574;2023-05-07T05:47:37;101731.81;;;14.85;88.33
61506;BME280;47366;51.916;4.574;2023-05-07T05:50:03;101724.47;;;14.86;88.40
61506;BME280;47366;51.916;4.574;2023-05-07T05:52:30;101728.50;;;14.80;89.40
61506;BME280;47366;51.916;4.574;2023-05-07T05:54:55;101730.25;;;14.81;88.56
61506;BME280;47366;51.916;4.574;2023-05-07T05:57:20;101742.81;;;14.84;88.39
61506;BME280;47366;51.916;4.574;2023-05-07T05:59:46;101743.00;;;14.81;88.42
61506;BME280;47366;51.916;4.574;2023-05-07T06:02:12;101745.63;;;14.82;88.46
61506;BME280;47366;51.916;4.574;2023-05-07T06:04:37;101747.19;;;14.86;88.09
61506;BME280;47366;51.916;4.574;2023-05-07T06:07:03;101742.59;;;14.87;88.30
61506;BME280;47366;51.916;4.574;2023-05-07T06:09:28;101739.97;;;14.85;89.32
61506;BME280;47366;51.916;4.574;2023-05-07T06:11:53;101742.22;;;14.79;90.73
61506;BME280;47366;51.916;4.574;2023-05-07T06:14:18;101744.09;;;14.78;89.24
61506;BME280;47366;51.916;4.574;2023-05-07T06:16:44;101744.97;;;14.79;89.95
61506;BME280;47366;51.916;4.574;2023-05-07T06:19:09;101739.41;;;14.80;90.53
61506;BME280;47366;51.916;4.574;2023-05-07T06:21:35;101741.34;;;14.78;90.39
61506;BME280;47366;51.916;4.574;2023-05-07T06:24:00;101743.31;;;14.76;90.12
61506;BME280;47366;51.916;4.574;2023-05-07T06:26:25;101745.81;;;14.79;91.15
61506;BME280;47366;51.916;4.574;2023-05-07T06:28:50;101747.69;;;14.79;90.84
61506;BME280;47366;51.916;4.574;2023-05-07T06:31:19;101737.75;;;14.78;90.67
61506;BME280;47366;51.916;4.574;2023-05-07T06:33:48;101747.69;;;14.79;90.14
61506;BME280;47366;51.916;4.574;2023-05-07T06:36:13;101755.88;;;14.79;91.13
61506;BME280;47366;51.916;4.574;2023-05-07T06:38:39;101747.59;;;14.80;90.61
61506;BME280;47366;51.916;4.574;2023-05-07T06:41:05;101746.50;;;14.83;91.52
61506;BME280;47366;51.916;4.574;2023-05-07T06:43:31;101738.22;;;14.84;90.68
61506;BME280;47366;51.916;4.574;2023-05-07T06:45:57;101735.31;;;14.88;91.81
61506;BME280;47366;51.916;4.574;2023-05-07T06:48:22;101734.59;;;14.98;90.74
61506;BME280;47366;51.916;4.574;2023-05-07T06:50:47;101735.31;;;15.15;90.46
61506;BME280;47366;51.916;4.574;2023-05-07T06:53:13;101735.38;;;15.27;90.68
61506;BME280;47366;51.916;4.574;2023-05-07T06:55:38;101738.34;;;15.37;90.18
61506;BME280;47366;51.916;4.574;2023-05-07T06:58:04;101730.31;;;15.48;90.46
61506;BME280;47366;51.916;4.574;2023-05-07T07:00:29;101739.72;;;15.71;90.76
61506;BME280;47366;51.916;4.574;2023-05-07T07:02:56;101732.94;;;15.77;88.93
61506;BME280;47366;51.916;4.574;2023-05-07T07:05:21;101732.47;;;15.70;89.54
61506;BME280;47366;51.916;4.574;2023-05-07T07:07:46;101736.25;;;15.68;89.48
61506;BME280;47366;51.916;4.574;2023-05-07T07:10:21;101737.16;;;15.68;89.33
61506;BME280;47366;51.916;4.574;2023-05-07T07:12:46;101742.53;;;15.70;89.49
61506;BME280;47366;51.916;4.574;2023-05-07T07:15:13;101742.63;;;15.68;90.21
61506;BME280;47366;51.916;4.574;2023-05-07T07:17:38;101746.72;;;15.76;89.68
61506;BME280;47366;51.916;4.574;2023-05-07T07:20:04;101752.19;;;15.76;89.91
61506;BME280;47366;51.916;4.574;2023-05-07T07:22:30;101740.16;;;15.78;89.19
61506;BME280;47366;51.916;4.574;2023-05-07T07:24:55;101747.28;;;15.81;89.65
61506;BME280;47366;51.916;4.574;2023-05-07T07:27:20;101750.56;;;15.86;89.60
61506;BME280;47366;51.916;4.574;2023-05-07T07:29:46;101744.78;;;15.90;90.73
61506;BME280;47366;51.916;4.574;2023-05-07T07:32:11;101747.84;;;16.11;90.79
61506;BME280;47366;51.916;4.574;2023-05-07T07:34:36;101759.44;;;16.28;90.10
61506;BME280;47366;51.916;4.574;2023-05-07T07:37:02;101755.63;;;16.30;89.35
61506;BME280;47366;51.916;4.574;2023-05-07T07:39:34;101755.19;;;16.37;89.98
61506;BME280;47366;51.916;4.574;2023-05-07T07:41:59;101753.00;;;16.29;89.67
61506;BME280;47366;51.916;4.574;2023-05-07T07:44:25;101753.63;;;16.32;89.33
61506;BME280;47366;51.916;4.574;2023-05-07T07:46:51;101752.91;;;16.30;88.70
61506;BME280;47366;51.916;4.574;2023-05-07T07:49:16;101756.19;;;16.35;89.07
61506;BME280;47366;51.916;4.574;2023-05-07T07:51:42;101762.09;;;16.42;87.77
61506;BME280;47366;51.916;4.574;2023-05-07T07:54:07;101760.41;;;16.40;90.06
61506;BME280;47366;51.916;4.574;2023-05-07T07:56:33;101757.69;;;16.40;88.84
61506;BME280;47366;51.916;4.574;2023-05-07T07:58:59;101760.53;;;16.38;89.85
61506;BME280;47366;51.916;4.574;2023-05-07T08:01:24;101764.81;;;16.42;89.56
61506;BME280;47366;51.916;4.574;2023-05-07T08:03:49;101762.28;;;16.39;90.41
61506;BME280;47366;51.916;4.574;2023-05-07T08:06:15;101760.75;;;16.48;89.57
61506;BME280;47366;51.916;4.574;2023-05-07T08:08:40;101758.66;;;16.64;89.92
61506;BME280;47366;51.916;4.574;2023-05-07T08:11:06;101760.59;;;16.75;89.44
61506;BME280;47366;51.916;4.574;2023-05-07T08:13:31;101757.00;;;16.87;88.88
61506;BME280;47366;51.916;4.574;2023-05-07T08:15:56;101762.81;;;16.95;88.35
61506;BME280;47366;51.916;4.574;2023-05-07T08:18:22;101763.28;;;17.13;87.85
61506;BME280;47366;51.916;4.574;2023-05-07T08:20:49;101771.75;;;17.34;88.86
61506;BME280;47366;51.916;4.574;2023-05-07T08:23:15;101762.72;;;17.45;86.48
61506;BME280;47366;51.916;4.574;2023-05-07T08:25:40;101776.28;;;17.71;86.21
61506;BME280;47366;51.916;4.574;2023-05-07T08:28:07;101780.28;;;17.91;85.51
61506;BME280;47366;51.916;4.574;2023-05-07T08:30:33;101779.66;;;17.98;85.46
61506;BME280;47366;51.916;4.574;2023-05-07T08:32:58;101779.09;;;18.17;84.32
61506;BME280;47366;51.916;4.574;2023-05-07T08:35:23;101775.88;;;18.23;83.96
61506;BME280;47366;51.916;4.574;2023-05-07T08:37:50;101776.78;;;18.46;83.51
61506;BME280;47366;51.916;4.574;2023-05-07T08:40:16;101774.41;;;18.76;82.78
61506;BME280;47366;51.916;4.574;2023-05-07T08:42:41;101771.97;;;18.84;81.67
61506;BME280;47366;51.916;4.574;2023-05-07T08:45:09;101774.94;;;19.03;80.94
61506;BME280;47366;51.916;4.574;2023-05-07T08:47:46;101780.16;;;19.18;80.26
61506;BME280;47366;51.916;4.574;2023-05-07T08:50:15;101776.25;;;19.31;79.61
61506;BME280;47366;51.916;4.574;2023-05-07T08:52:41;101777.25;;;19.30;78.66
61506;BME280;47366;51.916;4.574;2023-05-07T08:55:07;101778.16;;;19.31;78.28
61506;BME280;47366;51.916;4.574;2023-05-07T08:57:32;101788.38;;;19.29;78.84
61506;BME280;47366;51.916;4.574;2023-05-07T08:59:58;101790.28;;;19.28;78.54
61506;BME280;47366;51.916;4.574;2023-05-07T09:02:23;101775.50;;;19.29;78.16
61506;BME280;47366;51.916;4.574;2023-05-07T09:04:48;101782.91;;;19.29;78.43
61506;BME280;47366;51.916;4.574;2023-05-07T09:07:14;101777.41;;;19.29;78.46
61506;BME280;47366;51.916;4.574;2023-05-07T09:09:39;101785.84;;;19.37;77.97
61506;BME280;47366;51.916;4.574;2023-05-07T09:12:05;101784.88;;;19.38;78.45
61506;BME280;47366;51.916;4.574;2023-05-07T09:14:30;101788.59;;;19.37;78.52
61506;BME280;47366;51.916;4.574;2023-05-07T09:16:56;101787.75;;;19.37;77.93
61506;BME280;47366;51.916;4.574;2023-05-07T09:19:23;101784.88;;;19.38;77.18
61506;BME280;47366;51.916;4.574;2023-05-07T09:21:49;101791.72;;;19.44;78.06
61506;BME280;47366;51.916;4.574;2023-05-07T09:24:15;101790.59;;;19.46;76.56
61506;BME280;47366;51.916;4.574;2023-05-07T09:26:41;101782.72;;;19.42;76.65
61506;BME280;47366;51.916;4.574;2023-05-07T09:29:07;101790.59;;;19.35;76.90
61506;BME280;47366;51.916;4.574;2023-05-07T09:31:38;101794.88;;;19.28;77.44
61506;BME280;47366;51.916;4.574;2023-05-07T09:34:04;101804.00;;;19.17;76.84
61506;BME280;47366;51.916;4.574;2023-05-07T09:36:31;101790.00;;;19.20;76.90
61506;BME280;47366;51.916;4.574;2023-05-07T09:38:59;101787.25;;;19.43;76.39
61506;BME280;47366;51.916;4.574;2023-05-07T09:41:25;101790.00;;;19.64;76.15
61506;BME280;47366;51.916;4.574;2023-05-07T09:43:54;101792.50;;;19.78;73.54
61506;BME280;47366;51.916;4.574;2023-05-07T09:46:25;101793.66;;;19.97;73.89
61506;BME280;47366;51.916;4.574;2023-05-07T09:48:52;101789.78;;;20.20;74.40
61506;BME280;47366;51.916;4.574;2023-05-07T09:51:25;101790.19;;;20.36;72.58
61506;BME280;47366;51.916;4.574;2023-05-07T09:53:53;101784.56;;;20.59;72.39
61506;BME280;47366;51.916;4.574;2023-05-07T09:56:19;101795.63;;;20.69;71.28
61506;BME280;47366;51.916;4.574;2023-05-07T09:58:46;101786.03;;;20.63;71.71
61506;BME280;47366;51.916;4.574;2023-05-07T10:01:12;101791.41;;;20.65;72.06
61506;BME280;47366;51.916;4.574;2023-05-07T10:03:40;101793.28;;;20.64;72.22
61506;BME280;47366;51.916;4.574;2023-05-07T10:06:08;101799.44;;;20.77;70.96
61506;BME280;47366;51.916;4.574;2023-05-07T10:08:35;101798.94;;;20.63;68.06
61506;BME280;47366;51.916;4.574;2023-05-07T10:11:01;101792.31;;;20.54;69.99
61506;BME280;47366;51.916;4.574;2023-05-07T10:13:27;101782.94;;;20.56;69.14
61506;BME280;47366;51.916;4.574;2023-05-07T10:15:52;101791.41;;;20.65;70.38
61506;BME280;47366;51.916;4.574;2023-05-07T10:18:19;101792.00;;;20.68;69.40
61506;BME280;47366;51.916;4.574;2023-05-07T10:20:48;101796.34;;;20.71;69.69
61506;BME280;47366;51.916;4.574;2023-05-07T10:23:19;101799.50;;;20.66;68.61
61506;BME280;47366;51.916;4.574;2023-05-07T10:25:48;101797.09;;;20.73;69.48
61506;BME280;47366;51.916;4.574;2023-05-07T10:28:14;101788.00;;;20.82;69.96
61506;BME280;47366;51.916;4.574;2023-05-07T10:33:16;101800.56;;;21.06;69.63
61506;BME280;47366;51.916;4.574;2023-05-07T10:35:45;101805.38;;;21.13;68.76
61506;BME280;47366;51.916;4.574;2023-05-07T10:38:12;101786.41;;;21.20;68.49
61506;BME280;47366;51.916;4.574;2023-05-07T10:40:37;101800.28;;;21.09;67.90
61506;BME280;47366;51.916;4.574;2023-05-07T10:43:04;101795.72;;;20.88;68.47
61506;BME280;47366;51.916;4.574;2023-05-07T10:45:30;101798.38;;;20.69;68.47
61506;BME280;47366;51.916;4.574;2023-05-07T10:50:36;101797.75;;;20.86;66.14
61506;BME280;47366;51.916;4.574;2023-05-07T10:53:20;101807.22;;;21.03;67.71
61506;BME280;47366;51.916;4.574;2023-05-07T10:58:26;101814.34;;;21.06;66.12
61506;BME280;47366;51.916;4.574;2023-05-07T11:01:00;101809.28;;;21.11;66.20
61506;BME280;47366;51.916;4.574;2023-05-07T11:03:26;101810.50;;;21.28;66.82
61506;BME280;47366;51.916;4.574;2023-05-07T11:06:12;101815.28;;;21.35;66.49
61506;BME280;47366;51.916;4.574;2023-05-07T11:08:56;101819.78;;;21.27;66.36
61506;BME280;47366;51.916;4.574;2023-05-07T11:14:09;101814.34;;;21.06;67.35
61506;BME280;47366;51.916;4.574;2023-05-07T11:16:35;101808.97;;;21.04;65.90
61506;BME280;47366;51.916;4.574;2023-05-07T11:19:02;101805.25;;;21.15;66.39
61506;BME280;47366;51.916;4.574;2023-05-07T11:21:40;101815.13;;;21.17;66.17
61506;BME280;47366;51.916;4.574;2023-05-07T11:24:06;101815.44;;;21.24;65.71
61506;BME280;47366;51.916;4.574;2023-05-07T11:29:13;101807.59;;;21.29;65.02
61506;BME280;47366;51.916;4.574;2023-05-07T11:31:39;101815.03;;;21.38;65.66
61506;BME280;47366;51.916;4.574;2023-05-07T11:34:05;101807.44;;;21.31;65.05
61506;BME280;47366;51.916;4.574;2023-05-07T11:36:31;101812.53;;;21.35;65.30
61506;BME280;47366;51.916;4.574;2023-05-07T11:38:57;101809.06;;;21.33;64.84
61506;BME280;47366;51.916;4.574;2023-05-07T11:41:33;101815.09;;;21.48;65.61
61506;BME280;47366;51.916;4.574;2023-05-07T11:43:59;101811.47;;;21.57;65.96
61506;BME280;47366;51.916;4.574;2023-05-07T11:46:25;101818.72;;;21.49;63.09
61506;BME280;47366;51.916;4.574;2023-05-07T11:48:50;101821.88;;;21.44;65.22
61506;BME280;47366;51.916;4.574;2023-05-07T11:51:20;101808.34;;;21.31;64.51
61506;BME280;47366;51.916;4.574;2023-05-07T11:53:46;101815.00;;;21.29;64.47
61506;BME280;47366;51.916;4.574;2023-05-07T11:56:13;101820.94;;;21.24;65.12
61506;BME280;47366;51.916;4.574;2023-05-07T11:58:40;101813.84;;;21.21;65.63
61506;BME280;47366;51.916;4.574;2023-05-07T12:01:08;101826.28;;;21.26;65.56
61506;BME280;47366;51.916;4.574;2023-05-07T12:03:36;101826.88;;;21.19;65.75
61506;BME280;47366;51.916;4.574;2023-05-07T12:06:02;101818.16;;;21.14;65.36
61506;BME280;47366;51.916;4.574;2023-05-07T12:08:30;101819.56;;;21.09;65.38
61506;BME280;47366;51.916;4.574;2023-05-07T12:10:56;101827.50;;;21.02;65.61
61506;BME280;47366;51.916;4.574;2023-05-07T12:13:23;101821.41;;;20.98;65.89
61506;BME280;47366;51.916;4.574;2023-05-07T12:15:54;101828.56;;;20.80;63.15
61506;BME280;47366;51.916;4.574;2023-05-07T12:18:20;101822.59;;;20.75;65.68
61506;BME280;47366;51.916;4.574;2023-05-07T12:20:46;101824.97;;;20.79;65.97
61506;BME280;47366;51.916;4.574;2023-05-07T12:23:13;101825.50;;;20.73;65.59
61506;BME280;47366;51.916;4.574;2023-05-07T12:25:39;101831.28;;;20.70;65.84
61506;BME280;47366;51.916;4.574;2023-05-07T12:28:07;101822.72;;;20.73;66.33
61506;BME280;47366;51.916;4.574;2023-05-07T12:30:39;101823.88;;;20.71;66.21
61506;BME280;47366;51.916;4.574;2023-05-07T12:33:05;101822.56;;;20.65;66.39
61506;BME280;47366;51.916;4.574;2023-05-07T12:35:32;101821.06;;;20.61;66.53
61506;BME280;47366;51.916;4.574;2023-05-07T12:37:58;101824.69;;;20.62;66.30
61506;BME280;47366;51.916;4.574;2023-05-07T12:40:38;101821.50;;;20.56;66.21
61506;BME280;47366;51.916;4.574;2023-05-07T12:43:04;101826.66;;;20.50;66.72
61506;BME280;47366;51.916;4.574;2023-05-07T12:45:29;101837.16;;;20.45;66.54
61506;BME280;47366;51.916;4.574;2023-05-07T12:47:55;101843.22;;;20.39;66.85
61506;BME280;47366;51.916;4.574;2023-05-07T12:50:20;101840.75;;;20.35;65.56
61506;BME280;47366;51.916;4.574;2023-05-07T12:52:48;101853.03;;;20.31;66.59
61506;BME280;47366;51.916;4.574;2023-05-07T12:55:15;101847.78;;;20.28;66.74
61506;BME280;47366;51.916;4.574;2023-05-07T12:58:01;101856.91;;;20.29;66.89
61506;BME280;47366;51.916;4.574;2023-05-07T13:00:37;101855.63;;;20.12;66.96
61506;BME280;47366;51.916;4.574;2023-05-07T13:03:03;101851.44;;;19.97;67.63
61506;BME280;47366;51.916;4.574;2023-05-07T13:05:28;101854.81;;;20.00;68.33
61506;BME280;47366;51.916;4.574;2023-05-07T13:07:55;101856.19;;;19.94;68.33
61506;BME280;47366;51.916;4.574;2023-05-07T13:10:21;101859.94;;;19.93;68.35
61506;BME280;47366;51.916;4.574;2023-05-07T13:12:47;101860.13;;;19.81;68.29
61506;BME280;47366;51.916;4.574;2023-05-07T13:15:12;101851.38;;;19.76;68.82
61506;BME280;47366;51.916;4.574;2023-05-07T13:17:37;101859.03;;;19.72;69.41
61506;BME280;47366;51.916;4.574;2023-05-07T13:20:03;101859.03;;;19.72;69.54
61506;BME280;47366;51.916;4.574;2023-05-07T13:22:28;101861.03;;;19.70;69.93
61506;BME280;47366;51.916;4.574;2023-05-07T13:24:54;101860.88;;;19.60;70.21
61506;BME280;47366;51.916;4.574;2023-05-07T13:27:19;101868.00;;;19.63;70.98
61506;BME280;47366;51.916;4.574;2023-05-07T13:29:45;101866.50;;;19.59;71.31
61506;BME280;47366;51.916;4.574;2023-05-07T13:32:10;101863.28;;;19.53;71.24
61506;BME280;47366;51.916;4.574;2023-05-07T13:34:35;101868.00;;;19.51;72.34
61506;BME280;47366;51.916;4.574;2023-05-07T13:37:02;101874.53;;;19.39;73.24
61506;BME280;47366;51.916;4.574;2023-05-07T13:39:27;101871.94;;;19.26;74.22
61506;BME280;47366;51.916;4.574;2023-05-07T13:41:52;101877.69;;;19.12;74.99
61506;BME280;47366;51.916;4.574;2023-05-07T13:44:17;101878.56;;;19.13;74.47
61506;BME280;47366;51.916;4.574;2023-05-07T13:46:43;101871.66;;;19.18;74.41
61506;BME280;47366;51.916;4.574;2023-05-07T13:49:08;101877.44;;;19.26;74.08
61506;BME280;47366;51.916;4.574;2023-05-07T13:51:36;101877.16;;;19.29;74.18
61506;BME280;47366;51.916;4.574;2023-05-07T13:54:01;101888.03;;;19.31;74.15
61506;BME280;47366;51.916;4.574;2023-05-07T13:56:26;101885.28;;;19.31;74.39
61506;BME280;47366;51.916;4.574;2023-05-07T13:58:53;101881.31;;;19.24;74.25
61506;BME280;47366;51.916;4.574;2023-05-07T14:01:18;101894.03;;;19.25;74.41
61506;BME280;47366;51.916;4.574;2023-05-07T14:03:44;101896.88;;;19.23;75.04
61506;BME280;47366;51.916;4.574;2023-05-07T14:06:09;101896.53;;;19.17;75.06
61506;BME280;47366;51.916;4.574;2023-05-07T14:08:35;101900.91;;;19.19;74.65
61506;BME280;47366;51.916;4.574;2023-05-07T14:11:00;101905.38;;;19.20;75.06
61506;BME280;47366;51.916;4.574;2023-05-07T14:13:25;101904.91;;;19.15;75.19
61506;BME280;47366;51.916;4.574;2023-05-07T14:15:51;101903.66;;;19.19;75.31
61506;BME280;47366;51.916;4.574;2023-05-07T14:18:17;101901.88;;;19.18;75.03
61506;BME280;47366;51.916;4.574;2023-05-07T14:20:42;101895.91;;;19.13;75.23
61506;BME280;47366;51.916;4.574;2023-05-07T14:23:11;101902.91;;;19.17;75.11
61506;BME280;47366;51.916;4.574;2023-05-07T14:25:37;101910.38;;;19.15;75.22
61506;BME280;47366;51.916;4.574;2023-05-07T14:28:02;101911.25;;;19.16;74.97
61506;BME280;47366;51.916;4.574;2023-05-07T14:30:27;101908.66;;;19.14;75.00
61506;BME280;47366;51.916;4.574;2023-05-07T14:32:53;101908.66;;;19.14;75.26
61506;BME280;47366;51.916;4.574;2023-05-07T14:35:18;101908.88;;;19.11;75.06
61506;BME280;47366;51.916;4.574;2023-05-07T14:37:43;101913.25;;;19.14;75.37
61506;BME280;47366;51.916;4.574;2023-05-07T14:40:09;101906.78;;;19.15;75.04
61506;BME280;47366;51.916;4.574;2023-05-07T14:42:34;101901.13;;;19.16;75.12
61506;BME280;47366;51.916;4.574;2023-05-07T14:44:59;101902.91;;;19.17;75.11
61506;BME280;47366;51.916;4.574;2023-05-07T14:47:25;101899.28;;;19.17;75.27
61506;BME280;47366;51.916;4.574;2023-05-07T14:49:50;101913.03;;;19.17;75.83
61506;BME280;47366;51.916;4.574;2023-05-07T14:52:16;101911.50;;;19.13;75.63
61506;BME280;47366;51.916;4.574;2023-05-07T14:54:41;101897.13;;;19.09;75.69
61506;BME280;47366;51.916;4.574;2023-05-07T14:57:09;101906.03;;;19.13;75.86
61506;BME280;47366;51.916;4.574;2023-05-07T14:59:35;101887.53;;;19.15;75.79
61506;BME280;47366;51.916;4.574;2023-05-07T15:02:02;101901.13;;;19.16;75.92
61506;BME280;47366;51.916;4.574;2023-05-07T15:04:28;101907.16;;;19.21;76.61
61506;BME280;47366;51.916;4.574;2023-05-07T15:06:53;101900.25;;;19.16;76.21
61506;BME280;47366;51.916;4.574;2023-05-07T15:09:19;101906.50;;;19.18;76.17
61506;BME280;47366;51.916;4.574;2023-05-07T15:11:44;101896.28;;;19.20;76.22
61506;BME280;47366;51.916;4.574;2023-05-07T15:14:10;101900.03;;;19.19;76.08
61506;BME280;47366;51.916;4.574;2023-05-07T15:16:35;101907.38;;;19.18;76.31
61506;BME280;47366;51.916;4.574;2023-05-07T15:19:02;101915.00;;;19.15;76.56
61506;BME280;47366;51.916;4.574;2023-05-07T15:21:27;101918.75;;;19.14;76.42
61506;BME280;47366;51.916;4.574;2023-05-07T15:23:53;101922.25;;;19.16;76.16
61506;BME280;47366;51.916;4.574;2023-05-07T15:26:18;101925.50;;;19.09;76.71
61506;BME280;47366;51.916;4.574;2023-05-07T15:28:43;101929.22;;;19.08;76.83
61506;BME280;47366;51.916;4.574;2023-05-07T15:31:09;101924.84;;;19.06;76.92
61506;BME280;47366;51.916;4.574;2023-05-07T15:33:34;101927.84;;;19.03;77.28
61506;BME280;47366;51.916;4.574;2023-05-07T15:35:59;101933.34;;;19.03;76.90
61506;BME280;47366;51.916;4.574;2023-05-07T15:38:28;101938.09;;;19.01;77.58
61506;BME280;47366;51.916;4.574;2023-05-07T15:40:53;101930.09;;;18.98;77.35
61506;BME280;47366;51.916;4.574;2023-05-07T15:43:20;101935.22;;;19.02;77.77
61506;BME280;47366;51.916;4.574;2023-05-07T15:45:45;101932.72;;;18.99;78.03
61506;BME280;47366;51.916;4.574;2023-05-07T15:48:11;101932.84;;;18.98;77.89
61506;BME280;47366;51.916;4.574;2023-05-07T15:50:37;101951.44;;;18.94;77.86
61506;BME280;47366;51.916;4.574;2023-05-07T15:53:03;101943.81;;;18.86;77.48
61506;BME280;47366;51.916;4.574;2023-05-07T15:55:32;101949.41;;;18.85;77.72
61506;BME280;47366;51.916;4.574;2023-05-07T15:57:58;101939.44;;;18.84;77.01
61506;BME280;47366;51.916;4.574;2023-05-07T16:00:25;101948.13;;;18.78;77.08
61506;BME280;47366;51.916;4.574;2023-05-07T16:02:52;101951.78;;;18.78;77.40
61506;BME280;47366;51.916;4.574;2023-05-07T16:05:17;101946.72;;;18.72;77.30
61506;BME280;47366;51.916;4.574;2023-05-07T16:07:42;101946.97;;;18.69;77.20
61506;BME280;47366;51.916;4.574;2023-05-07T16:10:09;101943.22;;;18.70;77.45
61506;BME280;47366;51.916;4.574;2023-05-07T16:12:39;101947.97;;;18.68;77.67
61506;BME280;47366;51.916;4.574;2023-05-07T16:15:06;101947.09;;;18.67;77.46
61506;BME280;47366;51.916;4.574;2023-05-07T16:17:33;101943.59;;;18.65;78.17
61506;BME280;47366;51.916;4.574;2023-05-07T16:19:59;101946.81;;;18.59;78.36
61506;BME280;47366;51.916;4.574;2023-05-07T16:22:26;101950.56;;;18.58;78.81
61506;BME280;47366;51.916;4.574;2023-05-07T16:24:55;101951.66;;;18.56;78.85
61506;BME280;47366;51.916;4.574;2023-05-07T16:27:21;101952.03;;;18.51;79.71
61506;BME280;47366;51.916;4.574;2023-05-07T16:29:46;101958.38;;;18.52;79.95
61506;BME280;47366;51.916;4.574;2023-05-07T16:32:13;101955.13;;;18.46;79.61
61506;BME280;47366;51.916;4.574;2023-05-07T16:34:38;101951.50;;;18.46;80.94
61506;BME280;47366;51.916;4.574;2023-05-07T16:37:04;101954.50;;;18.43;80.79
61506;BME280;47366;51.916;4.574;2023-05-07T16:39:29;101958.34;;;18.40;80.53
61506;BME280;47366;51.916;4.574;2023-05-07T16:41:55;101951.25;;;18.38;81.06
61506;BME280;47366;51.916;4.574;2023-05-07T16:44:27;101957.69;;;18.37;80.65
61506;BME280;47366;51.916;4.574;2023-05-07T16:46:53;101956.84;;;18.36;80.46
61506;BME280;47366;51.916;4.574;2023-05-07T16:49:18;101954.44;;;18.32;80.18
61506;BME280;47366;51.916;4.574;2023-05-07T16:51:44;101950.94;;;18.30;81.15
61506;BME280;47366;51.916;4.574;2023-05-07T16:54:10;101953.78;;;18.28;80.73
61506;BME280;47366;51.916;4.574;2023-05-07T16:56:35;101952.03;;;18.27;80.95
61506;BME280;47366;51.916;4.574;2023-05-07T16:59:01;101947.56;;;18.26;80.46
61506;BME280;47366;51.916;4.574;2023-05-07T17:01:26;101949.41;;;18.25;80.39
61506;BME280;47366;51.916;4.574;2023-05-07T17:03:51;101947.78;;;18.23;80.23
61506;BME280;47366;51.916;4.574;2023-05-07T17:06:17;101958.88;;;18.21;80.18
61506;BME280;47366;51.916;4.574;2023-05-07T17:08:43;101959.75;;;18.22;80.59
61506;BME280;47366;51.916;4.574;2023-05-07T17:11:09;101947.16;;;18.19;80.48
61506;BME280;47366;51.916;4.574;2023-05-07T17:13:34;101963.25;;;18.24;80.27
61506;BME280;47366;51.916;4.574;2023-05-07T17:16:00;101948.78;;;18.22;79.94
61506;BME280;47366;51.916;4.574;2023-05-07T17:18:25;101960.53;;;18.24;80.79
61506;BME280;47366;51.916;4.574;2023-05-07T17:20:51;101960.72;;;18.21;80.48
61506;BME280;47366;51.916;4.574;2023-05-07T17:23:16;101966.22;;;18.21;80.56